Terminal Aerodrome Forecast
Issued by NWS Cleveland, OH

Home | Current Version | Previous Version | Text Only | Print | Product List | Glossary On
Versions: 1 2 3 4 5 6 7 8 9 10 11 12 13 14 15 16 17 18
222
FTUS41 KCLE 221514 AAA
TAFERI
TAF AMD
KERI 221514Z 2215/2312 32012G18KT P6SM OVC035
      TEMPO 2216/2219 OVC025
     FM222300 29005KT P6SM VCSH OVC030
     FM231100 22006KT P6SM BKN035 OVC080=

USA.gov is the U.S. government's official web portal to all federal, state and local government web resources and services.